Havana, FL (32333)

5:44 PM EST on December 28, 2014 (GMT -0500)
TeligentEMS | Change Station
CLOSE
Current Station
Personal Weather Station
Location: Havana, FL
Elevation: 259 ft
Nearby Weather Stations
Active Advisory: Flood Warning

Elev 259 ft 30.62 °N, 84.42 °W | Updated 1 second ago

Partly Cloudy
Partly Cloudy
71.9 °F
Feels Like 74 °F
N
2.7
Wind Variable Wind from SE
Gusts 3.1 mph

Today
High -- | Low -- °F
--% Chance of Precip.
Yesterday
High -- | Low -- °F
Precip. -- in
7:33 AM 5:44 PM
First Quarter, 52% visible
Pressure 30.05 in
Visibility 10.0 miles
Clouds Few 3000 ft
Mostly Cloudy 25000 ft
Heat Index 74 °F
Dew Point 63 °F
Humidity 74%
Rainfall 0.00 in
Snow Depth Not available.
UV 8.0 out of 12
Pollen 3.00 out of 12
Air Quality Not available.
Flu Activity Not available.
METAR KTLH 282153Z 18008KT 10SM FEW030 BKN250 24/17 A3005 RMK AO2 SLP175 T02390167

More Conditions Fewer Conditions

Pressure 30.05 in
Visibility 10.0 miles
Clouds Few 3000 ft
Mostly Cloudy 25000 ft
Heat Index 74 °F
Dew Point 63 °F
Humidity 74%
Rainfall 0.00 in
Snow Depth Not available.
UV 8.0 out of 12
Pollen 3.00 out of 12
Air Quality Not available.
Flu Activity Not available.
METAR KTLH 282153Z 18008KT 10SM FEW030 BKN250 24/17 A3005 RMK AO2 SLP175 T02390167

More Conditions Fewer Conditions

10-Day Weather Forecast

Almanac

Astronomy

Dec. 28, 2014 Rise Set
Actual Time
Civil Twilight
Nautical Twilight
Astronomical Twilight
Moon
Length of Visible Light
Length of Day
Tomorrow will be .
, % of the Moon is Illuminated

Today's Extremes

State Highs State Lows

Community

WunderPhotos

Upload Photos

1,781,452 photos uploaded!

WunderBlogs® & News

Nearby

Air Quality

  Air Quality AQ Index Pollutant
Not available.

Snow Depth

Station Depth Elevation

Earthquake Activity

City Distance Mag. Time & Date
Minimum magnitude displayed is 2.5.

Coastal Water Temperatures

Place Temperature

Nearby Weather Stations